Time;durP1;ratioP1;P1;durP2;ratioP2;P2;SDS_P1;SDS_P2;PMS_P1;PMS_P2;Temp;Humidity;BMP_temperature;BMP_pressure;BME280_temperature;BME280_humidity;BME280_pressure;Samples;Min_cycle;Max_cycle;Signal;HPM_P1;HPM_P2
2022/10/20 00:00:47;;;;;;;;;;;7.20;99.90;;;;;;5019012;28;19929;-69
2022/10/20 00:03:13;;;;;;;;;;;7.10;99.90;;;;;;5008987;28;20338;-69
2022/10/20 00:05:39;;;;;;;;;;;7.10;99.90;;;;;;5021365;28;19929;-69
2022/10/20 00:08:04;;;;;;;;;;;7.10;99.90;;;;;;5016396;28;19922;-69
2022/10/20 00:10:30;;;;;;;;;;;7.10;99.90;;;;;;5013793;28;19926;-69
2022/10/20 00:12:56;;;;;;;;;;;7.00;99.90;;;;;;5015455;28;19957;-69
2022/10/20 00:15:21;;;;;;;;;;;7.00;99.90;;;;;;5013855;28;19987;-69
2022/10/20 00:17:47;;;;;;;;;;;7.00;99.90;;;;;;5019190;28;19925;-69
2022/10/20 00:20:12;;;;;;;;;;;6.90;99.90;;;;;;5013703;28;19976;-69
2022/10/20 00:22:38;;;;;;;;;;;6.90;99.90;;;;;;5020949;28;19921;-69
2022/10/20 00:25:03;;;;;;;;;;;6.90;99.90;;;;;;5017151;28;19925;-69
2022/10/20 00:27:29;;;;;;;;;;;6.80;99.90;;;;;;5012723;28;19952;-69
2022/10/20 00:29:54;;;;;;;;;;;6.80;99.90;;;;;;5013176;28;19929;-69
2022/10/20 00:32:20;;;;;;;;;;;6.80;99.90;;;;;;5014403;28;19987;-69
2022/10/20 00:34:45;;;;;;;;;;;6.80;99.90;;;;;;5008676;28;19925;-69
2022/10/20 00:37:11;;;;;;;;;;;6.80;99.90;;;;;;5014107;28;20446;-69
2022/10/20 00:39:36;;;;;;;;;;;6.80;99.90;;;;;;5014533;28;19921;-68
2022/10/20 00:42:02;;;;;;;;;;;6.70;99.90;;;;;;5010426;28;19922;-68
2022/10/20 00:44:43;;;;;;;;;;;6.70;99.90;;;;;;5029475;28;19925;-68
2022/10/20 00:47:13;;;;;;;;;;;6.80;99.90;;;;;;5020281;28;19968;-68
2022/10/20 00:49:39;;;;;;;;;;;6.70;99.90;;;;;;5012260;28;19952;-68
2022/10/20 00:52:04;;;;;;;;;;;6.70;99.90;;;;;;5010377;28;19926;-68
2022/10/20 00:54:30;;;;;;;;;;;6.60;99.90;;;;;;5013028;28;20442;-68
2022/10/20 00:56:56;;;;;;;;;;;6.60;99.90;;;;;;5011953;28;19965;-69
2022/10/20 00:59:24;;;;;;;;;;;6.60;99.90;;;;;;5007779;28;19930;-69
2022/10/20 01:01:50;;;;;;;;;;;6.60;99.90;;;;;;5010628;28;19978;-69
2022/10/20 01:04:16;;;;;;;;;;;6.60;99.90;;;;;;5010125;28;19925;-69
2022/10/20 01:06:42;;;;;;;;;;;6.60;99.90;;;;;;5008287;28;19929;-69
2022/10/20 01:09:07;;;;;;;;;;;6.50;99.90;;;;;;5009764;28;19929;-69
2022/10/20 01:11:56;;;;;;;;;;;6.50;99.90;;;;;;5007845;28;19941;-69
2022/10/20 01:14:21;;;;;;;;;;;6.50;99.90;;;;;;5009658;28;19933;-69
2022/10/20 01:16:47;;;;;;;;;;;6.50;99.90;;;;;;5013165;28;20059;-69
2022/10/20 01:19:24;;;;;;;;;;;6.40;99.90;;;;;;5010512;28;19925;-69
2022/10/20 01:22:00;;;;;;;;;;;6.40;99.90;;;;;;5011364;28;19925;-69
2022/10/20 01:24:28;;;;;;;;;;;6.40;99.90;;;;;;5015052;28;19974;-69
2022/10/20 01:27:17;;;;;;;;;;;6.40;99.90;;;;;;5007967;28;19976;-69
2022/10/20 01:29:44;;;;;;;;;;;6.40;99.90;;;;;;4997961;28;19925;-69
2022/10/20 01:32:21;;;;;;;;;;;6.40;99.90;;;;;;5012040;28;20734;-69
2022/10/20 01:34:56;;;;;;;;;;;6.40;99.90;;;;;;5009856;28;19929;-69
2022/10/20 01:37:25;;;;;;;;;;;6.30;99.90;;;;;;5013100;28;19978;-69
2022/10/20 01:39:50;;;;;;;;;;;6.40;99.90;;;;;;5022656;28;19971;-69
2022/10/20 01:42:19;;;;;;;;;;;6.40;99.90;;;;;;5011630;28;19925;-69
2022/10/20 01:44:46;;;;;;;;;;;6.40;99.90;;;;;;5013266;28;19929;-69
2022/10/20 01:47:13;;;;;;;;;;;6.40;99.90;;;;;;5018938;28;20000;-68
2022/10/20 01:49:41;;;;;;;;;;;6.40;99.90;;;;;;5010262;28;19928;-68
2022/10/20 01:52:08;;;;;;;;;;;6.40;99.90;;;;;;5012754;28;19926;-68
2022/10/20 01:54:34;;;;;;;;;;;6.40;99.90;;;;;;5015219;28;20401;-68
2022/10/20 01:57:08;;;;;;;;;;;6.40;99.90;;;;;;5015795;28;19921;-68
2022/10/20 01:59:36;;;;;;;;;;;6.40;99.90;;;;;;5022141;28;20279;-68
2022/10/20 02:02:10;;;;;;;;;;;6.40;99.90;;;;;;5012742;28;20007;-68
2022/10/20 02:05:02;;;;;;;;;;;6.40;99.90;;;;;;5015972;28;19922;-68
2022/10/20 02:07:28;;;;;;;;;;;6.40;99.90;;;;;;5007262;28;20323;-68
2022/10/20 02:09:59;;;;;;;;;;;6.40;99.90;;;;;;5011456;28;19925;-68
2022/10/20 02:12:28;;;;;;;;;;;6.40;99.90;;;;;;5009387;28;19921;-68
2022/10/20 02:14:54;;;;;;;;;;;6.30;99.90;;;;;;5012639;28;19922;-68
2022/10/20 02:17:20;;;;;;;;;;;6.40;99.90;;;;;;5009769;28;20245;-68
2022/10/20 02:19:47;;;;;;;;;;;6.30;99.90;;;;;;5011020;28;20012;-68
2022/10/20 02:22:13;;;;;;;;;;;6.40;99.90;;;;;;5022565;28;19928;-68
2022/10/20 02:24:40;;;;;;;;;;;6.40;99.90;;;;;;5013021;28;19975;-68
2022/10/20 02:27:18;;;;;;;;;;;6.40;99.90;;;;;;5017279;28;19928;-68
2022/10/20 02:29:46;;;;;;;;;;;6.40;99.90;;;;;;5007631;28;19936;-68
2022/10/20 02:32:12;;;;;;;;;;;6.30;99.90;;;;;;5017123;28;19936;-68
2022/10/20 02:34:38;;;;;;;;;;;6.30;99.90;;;;;;5016084;28;19936;-68
2022/10/20 02:37:03;;;;;;;;;;;6.40;99.90;;;;;;5013513;28;20291;-69
2022/10/20 02:39:29;;;;;;;;;;;6.40;99.90;;;;;;5014439;28;20382;-68
2022/10/20 02:41:54;;;;;;;;;;;6.30;99.90;;;;;;5013002;28;19929;-68
2022/10/20 02:44:21;;;;;;;;;;;6.40;99.90;;;;;;5021338;28;19932;-69
2022/10/20 02:46:47;;;;;;;;;;;6.30;99.90;;;;;;5019366;28;20333;-69
2022/10/20 02:49:12;;;;;;;;;;;6.30;99.90;;;;;;5009967;28;19933;-69
2022/10/20 02:51:38;;;;;;;;;;;6.30;99.90;;;;;;5015884;28;19932;-69
2022/10/20 02:54:03;;;;;;;;;;;6.30;99.90;;;;;;5013665;28;19929;-69
2022/10/20 02:56:29;;;;;;;;;;;6.40;99.90;;;;;;5016272;28;20414;-69
2022/10/20 02:58:54;;;;;;;;;;;6.40;99.90;;;;;;5013178;28;19926;-69
2022/10/20 03:01:21;;;;;;;;;;;6.30;99.90;;;;;;5017457;28;20003;-69
2022/10/20 03:03:46;;;;;;;;;;;6.40;99.90;;;;;;5012561;28;19976;-69
2022/10/20 03:06:13;;;;;;;;;;;6.40;99.90;;;;;;5006720;28;19933;-69
2022/10/20 03:08:39;;;;;;;;;;;6.40;99.90;;;;;;5010371;28;19926;-69
2022/10/20 03:11:04;;;;;;;;;;;6.40;99.90;;;;;;5011675;28;20403;-69
2022/10/20 03:13:30;;;;;;;;;;;6.40;99.90;;;;;;5011209;28;19925;-69
2022/10/20 03:15:55;;;;;;;;;;;6.40;99.90;;;;;;5015166;28;19921;-69
2022/10/20 03:18:21;;;;;;;;;;;6.40;99.90;;;;;;4996127;28;19929;-69
2022/10/20 03:20:49;;;;;;;;;;;6.40;99.90;;;;;;4995267;28;19926;-69
2022/10/20 03:23:14;;;;;;;;;;;6.30;99.90;;;;;;5014933;28;20004;-69
2022/10/20 03:25:40;;;;;;;;;;;6.30;99.90;;;;;;5013210;28;20348;-69
2022/10/20 03:28:05;;;;;;;;;;;6.30;99.90;;;;;;5012920;28;19967;-69
2022/10/20 03:30:31;;;;;;;;;;;6.30;99.90;;;;;;5018150;28;20359;-69
2022/10/20 03:32:56;;;;;;;;;;;6.30;99.90;;;;;;5027780;28;20003;-69
2022/10/20 03:35:22;;;;;;;;;;;6.30;99.90;;;;;;5011990;28;20450;-69
2022/10/20 03:37:47;;;;;;;;;;;6.30;99.90;;;;;;5007908;28;19925;-69
2022/10/20 03:40:13;;;;;;;;;;;6.30;99.90;;;;;;5009144;28;19930;-69
2022/10/20 03:42:38;;;;;;;;;;;6.30;99.90;;;;;;5014153;28;19921;-69
2022/10/20 03:45:04;;;;;;;;;;;6.30;99.90;;;;;;5010268;28;19925;-69
2022/10/20 03:47:29;;;;;;;;;;;6.30;99.90;;;;;;5017000;28;20015;-69
2022/10/20 03:49:55;;;;;;;;;;;6.30;99.90;;;;;;5018906;28;20271;-69
2022/10/20 03:52:20;;;;;;;;;;;6.30;99.90;;;;;;5008749;28;19967;-69
2022/10/20 03:54:46;;;;;;;;;;;6.40;99.90;;;;;;5009403;28;19956;-69
2022/10/20 03:57:11;;;;;;;;;;;6.40;99.90;;;;;;5010379;28;19921;-69
2022/10/20 03:59:37;;;;;;;;;;;6.30;99.90;;;;;;5013416;28;20313;-69
2022/10/20 04:02:02;;;;;;;;;;;6.30;99.90;;;;;;5012018;28;20393;-69
2022/10/20 04:04:27;;;;;;;;;;;6.40;99.90;;;;;;5012820;28;19948;-69
2022/10/20 04:06:54;;;;;;;;;;;6.40;99.90;;;;;;5011018;28;19925;-69
2022/10/20 04:09:19;;;;;;;;;;;6.40;99.90;;;;;;5007528;28;20485;-69
2022/10/20 04:11:45;;;;;;;;;;;6.40;99.90;;;;;;5013286;28;19925;-69
2022/10/20 04:14:10;;;;;;;;;;;6.40;99.90;;;;;;5008483;28;19921;-69
2022/10/20 04:16:35;;;;;;;;;;;6.30;99.90;;;;;;5013899;28;20008;-69
2022/10/20 04:19:01;;;;;;;;;;;6.40;99.90;;;;;;5011582;28;19921;-69
2022/10/20 04:21:26;;;;;;;;;;;6.40;99.90;;;;;;5013155;28;20471;-69
2022/10/20 04:23:52;;;;;;;;;;;6.40;99.90;;;;;;5009312;28;20008;-69
2022/10/20 04:26:17;;;;;;;;;;;6.30;99.90;;;;;;5018298;28;20375;-69
2022/10/20 04:28:43;;;;;;;;;;;6.30;99.90;;;;;;5009671;28;19932;-69
2022/10/20 04:31:08;;;;;;;;;;;6.30;99.90;;;;;;5016415;28;19925;-69
2022/10/20 04:33:34;;;;;;;;;;;6.30;99.90;;;;;;5013485;28;19929;-69
2022/10/20 04:36:00;;;;;;;;;;;6.40;99.90;;;;;;5010791;28;19928;-69
2022/10/20 04:38:28;;;;;;;;;;;6.30;99.90;;;;;;5012706;28;19927;-69
2022/10/20 04:40:54;;;;;;;;;;;6.30;99.90;;;;;;5008141;28;19928;-69
2022/10/20 04:43:20;;;;;;;;;;;6.30;99.90;;;;;;5013801;28;20028;-69
2022/10/20 04:45:45;;;;;;;;;;;6.30;99.90;;;;;;5012112;28;20015;-69
2022/10/20 04:48:11;;;;;;;;;;;6.30;99.90;;;;;;5018520;28;19922;-69
2022/10/20 04:50:36;;;;;;;;;;;6.20;99.90;;;;;;5010505;28;19925;-69
2022/10/20 04:53:01;;;;;;;;;;;6.20;99.90;;;;;;5013251;28;19961;-69
2022/10/20 04:55:27;;;;;;;;;;;6.20;99.90;;;;;;5007375;28;19943;-69
2022/10/20 04:57:52;;;;;;;;;;;6.20;99.90;;;;;;5013871;28;19934;-69
2022/10/20 05:00:18;;;;;;;;;;;6.20;99.90;;;;;;5011832;28;19922;-69
2022/10/20 05:02:43;;;;;;;;;;;6.20;99.90;;;;;;5008935;28;19925;-69
2022/10/20 05:05:09;;;;;;;;;;;6.20;99.90;;;;;;5010654;28;19949;-69
2022/10/20 05:07:34;;;;;;;;;;;6.10;99.90;;;;;;5015996;28;19972;-69
2022/10/20 05:10:00;;;;;;;;;;;6.10;99.90;;;;;;5010162;28;20405;-69
2022/10/20 05:12:26;;;;;;;;;;;6.10;99.90;;;;;;5012616;28;19925;-69
2022/10/20 05:14:52;;;;;;;;;;;6.20;99.90;;;;;;5010371;28;20004;-69
2022/10/20 05:17:17;;;;;;;;;;;6.20;99.90;;;;;;5009978;28;20044;-69
2022/10/20 05:19:44;;;;;;;;;;;6.20;99.90;;;;;;5012493;28;19974;-69
2022/10/20 05:22:10;;;;;;;;;;;6.10;99.90;;;;;;5010860;28;19927;-69
2022/10/20 05:24:35;;;;;;;;;;;6.10;99.90;;;;;;5005223;28;19926;-69
2022/10/20 05:27:01;;;;;;;;;;;6.10;99.90;;;;;;5011895;28;19925;-69
2022/10/20 05:29:26;;;;;;;;;;;6.10;99.90;;;;;;5014625;28;20016;-69
2022/10/20 05:31:52;;;;;;;;;;;6.10;99.90;;;;;;5013772;28;19961;-69
2022/10/20 05:34:17;;;;;;;;;;;6.10;99.90;;;;;;5012248;28;20259;-69
2022/10/20 05:36:43;;;;;;;;;;;6.10;99.90;;;;;;5014836;28;21199;-69
2022/10/20 05:39:08;;;;;;;;;;;6.10;99.90;;;;;;5012831;28;19921;-69
2022/10/20 05:41:34;;;;;;;;;;;6.00;99.90;;;;;;5012414;28;19928;-69
2022/10/20 05:44:00;;;;;;;;;;;6.00;99.90;;;;;;5013037;28;19921;-69
2022/10/20 05:46:27;;;;;;;;;;;6.00;99.90;;;;;;5013217;28;19948;-69
2022/10/20 05:48:54;;;;;;;;;;;6.00;99.90;;;;;;5010149;28;19979;-69
2022/10/20 05:51:21;;;;;;;;;;;6.10;99.90;;;;;;5012831;28;19929;-69
2022/10/20 05:53:46;;;;;;;;;;;6.10;99.90;;;;;;5013713;28;19921;-69
2022/10/20 05:56:12;;;;;;;;;;;6.10;99.90;;;;;;5013682;28;19921;-69
2022/10/20 05:58:38;;;;;;;;;;;6.10;99.90;;;;;;5021786;28;19929;-69
2022/10/20 06:01:18;;;;;;;;;;;6.20;99.90;;;;;;5016407;28;19921;-69
2022/10/20 06:03:50;;;;;;;;;;;6.10;99.90;;;;;;5021422;28;19932;-69
2022/10/20 06:06:16;;;;;;;;;;;6.10;99.90;;;;;;5016411;28;19944;-69
2022/10/20 06:08:42;;;;;;;;;;;6.10;99.90;;;;;;5012202;28;19924;-69
2022/10/20 06:11:09;;;;;;;;;;;6.10;99.90;;;;;;5015028;28;19929;-69
2022/10/20 06:13:34;;;;;;;;;;;6.10;99.90;;;;;;5014067;28;19949;-69
2022/10/20 06:16:20;;;;;;;;;;;6.10;99.90;;;;;;5016399;28;19976;-69
2022/10/20 06:18:46;;;;;;;;;;;6.10;99.90;;;;;;5008683;28;19952;-69
2022/10/20 06:21:13;;;;;;;;;;;6.10;99.90;;;;;;5012207;28;19968;-69
2022/10/20 06:23:38;;;;;;;;;;;6.10;99.90;;;;;;5017852;28;19929;-69
2022/10/20 06:26:05;;;;;;;;;;;6.10;99.90;;;;;;5011116;28;19926;-70
2022/10/20 06:28:31;;;;;;;;;;;6.10;99.90;;;;;;5011710;28;19921;-69
2022/10/20 06:30:57;;;;;;;;;;;6.20;99.90;;;;;;5010343;28;19953;-69
2022/10/20 06:33:23;;;;;;;;;;;6.20;99.90;;;;;;5012039;28;19922;-69
2022/10/20 06:35:49;;;;;;;;;;;6.20;99.90;;;;;;5010677;28;19929;-69
2022/10/20 06:38:14;;;;;;;;;;;6.20;99.90;;;;;;5038372;23;19929;-68
2022/10/20 06:40:39;;;;;;;;;;;6.20;99.90;;;;;;5015191;28;19929;-69
2022/10/20 06:43:05;;;;;;;;;;;6.30;99.90;;;;;;5018360;28;19924;-69
2022/10/20 06:45:30;;;;;;;;;;;6.30;99.90;;;;;;5016431;28;19925;-69
2022/10/20 06:47:56;;;;;;;;;;;6.30;99.90;;;;;;5015601;28;20299;-69
2022/10/20 06:50:21;;;;;;;;;;;6.30;99.90;;;;;;5015090;28;20302;-69
2022/10/20 06:52:47;;;;;;;;;;;6.40;99.90;;;;;;5015565;28;20016;-69
2022/10/20 06:55:12;;;;;;;;;;;6.50;99.90;;;;;;5021716;28;20358;-68
2022/10/20 06:57:38;;;;;;;;;;;6.60;99.90;;;;;;5024107;28;19932;-68
2022/10/20 07:00:04;;;;;;;;;;;6.60;99.90;;;;;;5022556;28;20019;-69
2022/10/20 07:02:29;;;;;;;;;;;6.60;99.90;;;;;;5021080;28;19928;-68
2022/10/20 07:04:55;;;;;;;;;;;6.60;99.90;;;;;;5015102;28;20251;-69
2022/10/20 07:07:20;;;;;;;;;;;6.70;99.90;;;;;;5016934;28;20051;-69
2022/10/20 07:09:46;;;;;;;;;;;6.70;99.90;;;;;;5011749;28;19936;-69
2022/10/20 07:12:11;;;;;;;;;;;6.80;99.90;;;;;;5016530;28;19925;-68
2022/10/20 07:14:36;;;;;;;;;;;6.80;99.90;;;;;;5001324;28;19920;-69
2022/10/20 07:17:02;;;;;;;;;;;6.90;99.90;;;;;;5015104;28;19921;-69
2022/10/20 07:19:28;;;;;;;;;;;6.90;99.90;;;;;;5035693;28;20457;-69
2022/10/20 07:21:53;;;;;;;;;;;7.00;99.90;;;;;;5039806;28;19964;-69
2022/10/20 07:24:19;;;;;;;;;;;7.10;99.90;;;;;;5039021;28;19928;-69
2022/10/20 07:26:44;;;;;;;;;;;7.10;99.90;;;;;;5013226;28;19935;-69
2022/10/20 07:29:10;;;;;;;;;;;7.20;99.90;;;;;;5014044;28;19925;-69
2022/10/20 07:31:37;;;;;;;;;;;7.20;99.90;;;;;;5034790;28;19940;-69
2022/10/20 07:34:03;;;;;;;;;;;7.30;99.90;;;;;;5031653;28;19947;-69
2022/10/20 07:36:30;;;;;;;;;;;7.30;99.90;;;;;;5007462;28;19929;-69
2022/10/20 07:38:57;;;;;;;;;;;7.30;99.90;;;;;;5014450;28;19932;-69
2022/10/20 07:41:22;;;;;;;;;;;7.30;99.90;;;;;;4996295;28;19972;-69
2022/10/20 07:43:48;;;;;;;;;;;7.30;99.90;;;;;;5014439;28;20331;-69
2022/10/20 07:46:14;;;;;;;;;;;7.30;99.90;;;;;;5016765;28;19925;-69
2022/10/20 07:48:40;;;;;;;;;;;7.30;99.90;;;;;;5017854;28;19925;-70
2022/10/20 07:51:12;;;;;;;;;;;7.30;99.90;;;;;;5031514;28;20417;-69
2022/10/20 07:53:37;;;;;;;;;;;7.40;99.90;;;;;;5011900;28;19974;-69
2022/10/20 07:56:02;;;;;;;;;;;7.50;99.90;;;;;;5016669;28;20309;-69
2022/10/20 07:58:28;;;;;;;;;;;7.50;99.90;;;;;;5012775;28;19925;-70
2022/10/20 08:00:53;;;;;;;;;;;7.60;99.90;;;;;;5009855;28;19929;-67
2022/10/20 08:03:19;;;;;;;;;;;7.60;99.90;;;;;;5017336;28;20066;-67
2022/10/20 08:05:44;;;;;;;;;;;7.60;99.90;;;;;;5015705;28;19964;-67
2022/10/20 08:08:10;;;;;;;;;;;7.70;99.90;;;;;;5011536;28;20371;-67
2022/10/20 08:10:35;;;;;;;;;;;7.80;99.90;;;;;;5027756;28;19925;-67
2022/10/20 08:13:01;;;;;;;;;;;7.80;99.90;;;;;;5013465;28;19921;-69
2022/10/20 08:15:26;;;;;;;;;;;7.90;99.90;;;;;;5019109;28;19964;-69
2022/10/20 08:17:52;;;;;;;;;;;8.00;99.90;;;;;;5013721;28;20390;-67
2022/10/20 08:20:17;;;;;;;;;;;8.10;99.90;;;;;;5014246;28;20008;-67
2022/10/20 08:22:43;;;;;;;;;;;8.20;99.90;;;;;;5012238;28;19921;-67
2022/10/20 08:25:12;;;;;;;;;;;8.20;99.90;;;;;;5009007;28;20443;-67
2022/10/20 08:27:37;;;;;;;;;;;8.30;99.90;;;;;;5022075;28;19982;-68
2022/10/20 08:30:03;;;;;;;;;;;8.40;99.90;;;;;;5008212;28;19925;-67
2022/10/20 08:32:28;;;;;;;;;;;8.50;99.90;;;;;;5013189;28;20016;-67
2022/10/20 08:34:54;;;;;;;;;;;8.50;99.90;;;;;;5027600;28;22405;-67
2022/10/20 08:37:19;;;;;;;;;;;8.50;99.90;;;;;;5032798;28;20013;-67
2022/10/20 08:39:45;;;;;;;;;;;8.60;99.90;;;;;;5010533;28;20694;-68
2022/10/20 08:42:10;;;;;;;;;;;8.70;99.90;;;;;;5008871;28;19925;-67
2022/10/20 08:44:36;;;;;;;;;;;8.80;99.90;;;;;;5013476;28;20278;-67
2022/10/20 08:47:03;;;;;;;;;;;8.90;99.90;;;;;;5008080;28;19921;-67
2022/10/20 08:49:31;;;;;;;;;;;9.00;99.90;;;;;;5010042;28;19940;-67
2022/10/20 08:51:57;;;;;;;;;;;9.00;99.90;;;;;;5024669;28;20442;-67
2022/10/20 08:54:23;;;;;;;;;;;9.10;99.90;;;;;;5020523;28;19931;-68
2022/10/20 08:56:49;;;;;;;;;;;9.20;99.90;;;;;;5011202;28;19925;-68
2022/10/20 08:59:24;;;;;;;;;;;9.20;99.90;;;;;;5012545;28;20347;-67
2022/10/20 09:01:49;;;;;;;;;;;9.30;99.90;;;;;;5007929;28;19925;-67
2022/10/20 09:04:18;;;;;;;;;;;9.40;99.90;;;;;;5010386;28;20011;-68
2022/10/20 09:06:44;;;;;;;;;;;9.40;99.90;;;;;;5004245;28;19921;-67
2022/10/20 09:09:13;;;;;;;;;;;9.50;99.90;;;;;;5013364;28;20007;-67
2022/10/20 09:11:39;;;;;;;;;;;9.60;99.90;;;;;;5013654;28;19943;-67
2022/10/20 09:14:06;;;;;;;;;;;9.60;99.90;;;;;;5010810;28;19955;-67
2022/10/20 09:16:36;;;;;;;;;;;9.80;99.90;;;;;;5019057;28;19921;-67
2022/10/20 09:19:03;;;;;;;;;;;9.80;99.90;;;;;;5015780;28;20398;-67
2022/10/20 09:21:30;;;;;;;;;;;9.80;99.90;;;;;;5014416;28;19923;-67
2022/10/20 09:23:59;;;;;;;;;;;9.80;99.90;;;;;;5014795;28;19921;-67
2022/10/20 09:26:35;;;;;;;;;;;9.80;99.90;;;;;;5014271;28;19921;-67
2022/10/20 09:29:03;;;;;;;;;;;10.00;99.90;;;;;;5013655;28;19964;-67
2022/10/20 09:31:35;;;;;;;;;;;10.00;99.90;;;;;;5019225;28;20346;-68
2022/10/20 09:34:01;;;;;;;;;;;10.20;99.90;;;;;;4996707;28;19921;-68
2022/10/20 09:36:29;;;;;;;;;;;10.20;99.90;;;;;;5021109;28;19994;-68
2022/10/20 09:38:54;;;;;;;;;;;10.30;99.90;;;;;;5009622;28;20067;-67
2022/10/20 09:41:24;;;;;;;;;;;10.30;99.90;;;;;;5017304;28;20422;-68
2022/10/20 09:44:00;;;;;;;;;;;10.40;99.90;;;;;;5028113;28;19978;-68
2022/10/20 09:46:27;;;;;;;;;;;10.50;99.90;;;;;;5012196;28;19975;-67
2022/10/20 09:48:53;;;;;;;;;;;10.50;99.90;;;;;;5012715;28;20287;-66
2022/10/20 09:51:21;;;;;;;;;;;10.60;99.90;;;;;;5012979;28;19929;-68
2022/10/20 09:54:06;;;;;;;;;;;10.60;99.90;;;;;;5012646;28;19928;-66
2022/10/20 09:56:31;;;;;;;;;;;10.70;99.90;;;;;;5009837;28;20008;-66
2022/10/20 09:58:58;;;;;;;;;;;10.80;99.90;;;;;;5013566;28;20323;-66
2022/10/20 10:01:24;;;;;;;;;;;10.80;99.90;;;;;;5010417;28;19937;-66
2022/10/20 10:03:51;;;;;;;;;;;10.80;99.90;;;;;;5012101;28;19925;-67
2022/10/20 10:06:20;;;;;;;;;;;10.90;99.90;;;;;;5013188;28;20469;-67
2022/10/20 10:08:46;;;;;;;;;;;11.00;99.90;;;;;;5012322;28;19936;-67
2022/10/20 10:11:13;;;;;;;;;;;11.00;99.90;;;;;;4996211;28;19933;-67
2022/10/20 10:13:43;;;;;;;;;;;11.20;99.90;;;;;;5012334;28;20298;-66
2022/10/20 10:16:10;;;;;;;;;;;11.20;99.90;;;;;;5014643;28;20256;-66
2022/10/20 10:18:36;;;;;;;;;;;11.20;99.90;;;;;;5015813;28;19968;-66
2022/10/20 10:21:12;;;;;;;;;;;11.30;99.90;;;;;;5016723;28;20011;-66
2022/10/20 10:23:57;;;;;;;;;;;11.30;99.90;;;;;;5010677;28;19925;-66
2022/10/20 10:26:32;;;;;;;;;;;11.40;99.90;;;;;;5007040;28;19921;-66
2022/10/20 10:28:58;;;;;;;;;;;11.50;99.90;;;;;;5020903;28;20310;-66
2022/10/20 10:31:24;;;;;;;;;;;11.50;99.90;;;;;;5019148;28;19929;-66
2022/10/20 10:33:51;;;;;;;;;;;11.40;99.90;;;;;;5010514;28;19935;-66
2022/10/20 10:36:29;;;;;;;;;;;11.50;99.90;;;;;;5016717;28;19921;-66
2022/10/20 10:38:55;;;;;;;;;;;11.60;99.90;;;;;;5015897;28;19931;-67
2022/10/20 10:41:29;;;;;;;;;;;11.80;99.90;;;;;;5014699;28;19925;-67
2022/10/20 10:44:13;;;;;;;;;;;12.00;99.90;;;;;;5016484;28;20020;-67
2022/10/20 10:46:41;;;;;;;;;;;12.20;99.90;;;;;;5015733;28;19921;-67
2022/10/20 10:49:20;;;;;;;;;;;12.20;99.90;;;;;;5012854;28;19952;-67
2022/10/20 10:51:49;;;;;;;;;;;12.40;99.90;;;;;;5014063;28;19929;-66
2022/10/20 10:54:33;;;;;;;;;;;12.50;99.90;;;;;;5016517;28;19979;-67
2022/10/20 10:57:11;;;;;;;;;;;12.70;99.90;;;;;;5012730;28;19957;-67
2022/10/20 10:59:41;;;;;;;;;;;12.70;99.90;;;;;;5016790;28;20000;-67
2022/10/20 11:02:19;;;;;;;;;;;12.80;99.90;;;;;;5013490;28;20002;-67
2022/10/20 11:04:50;;;;;;;;;;;12.80;99.90;;;;;;5009602;28;20366;-67
2022/10/20 11:07:39;;;;;;;;;;;13.00;99.90;;;;;;5015080;28;20000;-67
2022/10/20 11:10:17;;;;;;;;;;;12.90;99.90;;;;;;4999821;28;20021;-67
2022/10/20 11:12:55;;;;;;;;;;;12.90;99.90;;;;;;5014510;28;20067;-67
2022/10/20 11:15:21;;;;;;;;;;;12.90;99.90;;;;;;5032343;28;19929;-66
2022/10/20 11:17:54;;;;;;;;;;;12.90;99.90;;;;;;5017527;28;19920;-67
2022/10/20 11:20:25;;;;;;;;;;;12.90;99.90;;;;;;5027286;28;19932;-67
2022/10/20 11:22:59;;;;;;;;;;;13.00;99.90;;;;;;5013759;28;19928;-67
2022/10/20 11:25:32;;;;;;;;;;;13.10;99.90;;;;;;5011606;28;19928;-67
2022/10/20 11:27:58;;;;;;;;;;;13.20;99.90;;;;;;5014729;28;19932;-66
2022/10/20 11:30:26;;;;;;;;;;;13.20;99.90;;;;;;5014570;28;19940;-67
2022/10/20 11:33:04;;;;;;;;;;;13.30;99.90;;;;;;5019091;28;19932;-67
2022/10/20 11:35:30;;;;;;;;;;;13.30;99.90;;;;;;5014326;28;19984;-67
2022/10/20 11:38:14;;;;;;;;;;;13.30;99.90;;;;;;5013300;28;19972;-67
2022/10/20 11:40:43;;;;;;;;;;;13.30;99.90;;;;;;5015137;28;20046;-67
2022/10/20 11:43:18;;;;;;;;;;;13.30;99.90;;;;;;5014684;28;19921;-67
2022/10/20 11:45:53;;;;;;;;;;;13.30;99.90;;;;;;5012885;28;19921;-67
2022/10/20 11:48:34;;;;;;;;;;;13.20;99.90;;;;;;5010386;28;19921;-67
2022/10/20 11:51:06;;;;;;;;;;;13.30;99.90;;;;;;5014753;28;19936;-67
2022/10/20 11:53:41;;;;;;;;;;;13.20;99.90;;;;;;5011638;28;19921;-67
2022/10/20 11:56:20;;;;;;;;;;;13.20;99.90;;;;;;5014834;28;19921;-67
2022/10/20 11:58:49;;;;;;;;;;;13.30;99.90;;;;;;5009043;28;19920;-67
2022/10/20 12:01:30;;;;;;;;;;;13.30;99.90;;;;;;5014732;28;20485;-67
2022/10/20 12:03:58;;;;;;;;;;;13.20;99.90;;;;;;5014351;28;20011;-67
2022/10/20 12:06:30;;;;;;;;;;;13.30;99.90;;;;;;5014460;28;19925;-67
2022/10/20 12:09:16;;;;;;;;;;;13.30;99.90;;;;;;4996816;28;20448;-67
2022/10/20 12:11:48;;;;;;;;;;;13.30;99.90;;;;;;5013700;28;19925;-67
2022/10/20 12:14:14;;;;;;;;;;;13.30;99.90;;;;;;5010854;28;19921;-67
2022/10/20 12:16:58;;;;;;;;;;;13.40;99.90;;;;;;5014614;28;19921;-67
2022/10/20 12:19:25;;;;;;;;;;;13.40;99.90;;;;;;5011673;28;19921;-67
2022/10/20 12:21:57;;;;;;;;;;;13.40;99.90;;;;;;5014031;28;19933;-67
2022/10/20 12:24:34;;;;;;;;;;;13.40;99.90;;;;;;5013085;28;19927;-67
2022/10/20 12:27:02;;;;;;;;;;;13.30;99.90;;;;;;5020425;28;19961;-67
2022/10/20 12:29:30;;;;;;;;;;;13.30;99.90;;;;;;5006087;28;19925;-67
2022/10/20 12:32:15;;;;;;;;;;;13.30;99.90;;;;;;5008474;28;20334;-67
2022/10/20 12:34:41;;;;;;;;;;;13.30;99.90;;;;;;5013295;28;19929;-67
2022/10/20 12:37:07;;;;;;;;;;;13.20;99.90;;;;;;5013314;28;19925;-67
2022/10/20 12:39:32;;;;;;;;;;;13.20;99.90;;;;;;5013133;28;19925;-67
2022/10/20 12:42:00;;;;;;;;;;;13.20;99.90;;;;;;5013071;28;19925;-67
2022/10/20 12:44:27;;;;;;;;;;;13.10;99.90;;;;;;5010995;28;19928;-67
2022/10/20 12:47:01;;;;;;;;;;;13.00;99.90;;;;;;4996438;28;19940;-67
2022/10/20 12:49:29;;;;;;;;;;;13.00;99.90;;;;;;5012250;28;19929;-67
2022/10/20 12:51:56;;;;;;;;;;;12.90;99.90;;;;;;5030097;28;19933;-67
2022/10/20 12:54:25;;;;;;;;;;;12.80;99.90;;;;;;5011805;28;20398;-67
2022/10/20 12:56:51;;;;;;;;;;;12.70;99.90;;;;;;5013246;28;20008;-67
2022/10/20 12:59:33;;;;;;;;;;;12.60;99.90;;;;;;5013714;28;20284;-67
2022/10/20 13:02:08;;;;;;;;;;;12.60;99.90;;;;;;5010588;28;19921;-67
2022/10/20 13:04:51;;;;;;;;;;;12.60;99.90;;;;;;5013529;28;19928;-66
2022/10/20 13:07:36;;;;;;;;;;;12.50;99.90;;;;;;5013241;28;19925;-66
2022/10/20 13:10:21;;;;;;;;;;;12.40;99.90;;;;;;5028676;28;20259;-66
2022/10/20 13:12:47;;;;;;;;;;;12.40;99.90;;;;;;5011463;28;19929;-66
2022/10/20 13:15:16;;;;;;;;;;;12.40;99.90;;;;;;5028012;28;20510;-66
2022/10/20 13:18:08;;;;;;;;;;;12.30;99.90;;;;;;5009230;28;19971;-66
2022/10/20 13:20:39;;;;;;;;;;;12.30;99.90;;;;;;5023874;28;19929;-66
2022/10/20 13:23:09;;;;;;;;;;;12.20;99.90;;;;;;5021832;28;19960;-66
2022/10/20 13:25:37;;;;;;;;;;;12.20;99.90;;;;;;5019656;28;19925;-66
2022/10/20 13:28:12;;;;;;;;;;;12.20;99.90;;;;;;5034617;28;19925;-66
2022/10/20 13:30:48;;;;;;;;;;;12.10;99.90;;;;;;5012336;28;19933;-66
2022/10/20 13:33:17;;;;;;;;;;;12.10;99.90;;;;;;5021493;28;19963;-66
2022/10/20 13:35:47;;;;;;;;;;;12.10;99.90;;;;;;5012963;28;19928;-66
2022/10/20 13:38:23;;;;;;;;;;;12.00;99.90;;;;;;5017145;28;19944;-67
2022/10/20 13:41:07;;;;;;;;;;;12.00;99.90;;;;;;5011095;28;19969;-67
2022/10/20 13:43:53;;;;;;;;;;;12.00;99.90;;;;;;5011419;28;20535;-67
2022/10/20 13:46:18;;;;;;;;;;;12.00;99.90;;;;;;4997371;28;19925;-67
2022/10/20 13:48:50;;;;;;;;;;;11.90;99.90;;;;;;5012882;28;20286;-67
2022/10/20 13:51:22;;;;;;;;;;;11.90;99.90;;;;;;5018056;28;19955;-67
2022/10/20 13:53:49;;;;;;;;;;;11.90;99.90;;;;;;5014782;28;19921;-67
2022/10/20 13:56:14;;;;;;;;;;;11.90;99.90;;;;;;5034833;28;19927;-67
2022/10/20 13:58:41;;;;;;;;;;;11.90;99.90;;;;;;5016223;28;19924;-67
2022/10/20 14:01:15;;;;;;;;;;;11.80;99.90;;;;;;5033640;28;19999;-67
2022/10/20 14:03:42;;;;;;;;;;;11.80;99.90;;;;;;5017906;28;20647;-67
2022/10/20 14:06:27;;;;;;;;;;;11.80;99.90;;;;;;5015860;28;19921;-67
2022/10/20 14:08:57;;;;;;;;;;;11.80;99.90;;;;;;5016345;28;19975;-67
2022/10/20 14:11:24;;;;;;;;;;;11.80;99.90;;;;;;5007485;28;19964;-67
2022/10/20 14:13:50;;;;;;;;;;;11.80;99.90;;;;;;5016891;28;19971;-67
2022/10/20 14:16:17;;;;;;;;;;;11.80;99.90;;;;;;5013139;28;20341;-67
2022/10/20 14:18:42;;;;;;;;;;;11.70;99.90;;;;;;5013765;28;19968;-67
2022/10/20 14:21:18;;;;;;;;;;;11.70;99.90;;;;;;5016521;28;19967;-67
2022/10/20 14:23:44;;;;;;;;;;;11.70;99.90;;;;;;5012711;28;20525;-67
2022/10/20 14:26:12;;;;;;;;;;;11.70;99.90;;;;;;5017164;28;20651;-67
2022/10/20 14:28:38;;;;;;;;;;;11.60;99.90;;;;;;5014591;28;19964;-67
2022/10/20 14:31:04;;;;;;;;;;;11.60;99.90;;;;;;5007881;28;20409;-67
2022/10/20 14:33:32;;;;;;;;;;;11.60;99.90;;;;;;5016665;28;19999;-67